Landels-Hill Big Creek Reserve Entrance, California Weather observations

Data are for 10 minute period ending at time listed.
 Day   Time   Solar   Ave.   Ave.  Ave.  Vector  Max.   Baro.   Total    
  of    of     Rad.   Air    Rel.  Wind   Wind   Wind  Press.  Precip.   
Year   Day            Temp.  Hum.  Speed  Dir.   Gust                    
2014   (PST)  Kw/m2    F      %     mph   deg.    mph    mb.     in.     
-------------------------------------------------------------------------
 297    0:20   0.00   52.8    76    2.6    15     4.2   1011.9    0.00 
 297    0:30   0.00   52.7    76    2.0    20     3.9   1011.9    0.00 
 297    0:40   0.00   52.7    75    2.3   356     4.7   1011.9    0.00 
 297    0:50   0.00   52.8    75    2.1     4     3.9   1011.8    0.00 
 297    1:00   0.00   53.3    74    2.2     9     5.2   1011.7    0.00 
 297    1:10   0.00   54.0    72    1.6    11     3.6   1011.5    0.00 
 297    1:20   0.00   53.5    72    2.3    19     4.7   1011.4    0.00 
 297    1:30   0.00   52.6    74    2.9    24     5.5   1011.4    0.00 
 297    1:40   0.00   52.5    76    1.7    46     4.2   1011.4    0.00 
 297    1:50   0.00   52.8    77    1.8    34     4.2   1011.4    0.00 
 297    2:00   0.00   53.2    77    1.4    37     3.7   1011.4    0.00 
 297    2:10   0.00   52.7    78    1.1    23     3.8   1011.3    0.00 
 297    2:20   0.00   52.1    79    1.7    23     3.7   1011.3    0.00 
 297    2:30   0.00   51.8    80    2.0     9     3.8   1011.2    0.00 
 297    2:40   0.00   51.6    81    2.2     1     3.7   1011.2    0.00 
 297    2:50   0.00   51.5    81    2.2     2     3.8   1011.2    0.00 
 297    3:00   0.00   51.9    81    1.9    13     4.5   1011.2    0.00 
 297    3:10   0.00   52.6    81    2.0    27     5.6   1011.1    0.00 
 297    3:20   0.00   53.3    80    1.5    47     3.8   1011.2    0.00 
 297    3:30   0.00   53.8    78    1.5    19     4.1   1011.2    0.00 
 297    3:40   0.00   54.1    78    1.3    12     3.7   1011.2    0.00 
 297    3:50   0.00   54.6    77    1.0    31     3.9   1011.2    0.00 
 297    4:00   0.00   54.7    78    1.5    15     3.8   1011.3    0.00 
 297    4:10   0.00   54.9    79    1.1    44     3.4   1011.3    0.00 
 297    4:20   0.00   55.4    79    1.5    31     3.7   1011.3    0.00 
 297    4:30   0.00   55.4    80    1.8    39     3.7   1011.3    0.00 
 297    4:40   0.00   55.5    80    1.6    47     3.9   1011.4    0.00 
 297    4:50   0.00   55.5    79    2.4    36     4.7   1011.4    0.00 
 297    5:00   0.00   55.5    78    2.4     6     4.8   1011.4    0.00 
 297    5:10   0.00   55.4    78    2.2     9     3.7   1011.4    0.00 
 297    5:20   0.00   55.7    80    1.4    19     3.3   1011.4    0.00 
 297    5:30   0.00   55.8    80    1.3     8     2.8   1011.5    0.00 
 297    5:40   0.00   56.0    82    1.9     5     4.7   1011.5    0.00 
 297    5:50   0.00   56.3    84    1.6   360     4.3   1011.5    0.00 
 297    6:00   0.00   56.6    86    1.3    14     4.0   1011.6    0.00 
 297    6:10   0.00   56.4    87    2.0   355     4.9   1011.6    0.00 
 297    6:20   0.00   56.2    87    1.8     2     4.9   1011.7    0.00 
 297    6:30   0.00   56.1    88    2.1   355     5.6   1011.7    0.00 
 297    6:40   0.01   56.0    88    1.9     4     5.3   1011.8    0.00 
 297    6:50   0.01   55.9    87    1.5     6     4.4   1011.9    0.00 
 297    7:00   0.01   55.9    87    1.9     1     4.7   1012.0    0.00 
 297    7:10   0.03   56.0    87    1.9   354     5.0   1012.2    0.00 
 297    7:20   0.04   56.1    87    2.1   352     4.6   1012.3    0.00 
 297    7:30   0.05   56.3    86    2.0   356     4.5   1012.3    0.00 
 297    7:40   0.05   56.6    86    1.5   342     4.8   1012.2    0.00 
 297    7:50   0.08   56.6    85    1.0    20     3.5   1012.1    0.00 
 297    8:00   0.07   57.7    87    2.1   280     5.9   1012.2    0.00 
 297    8:10   0.10   58.4    89    0.8   289     2.8   1012.1    0.00 
 297    8:20   0.12   58.7    89    0.6   285     3.6   1012.1    0.00 
 297    8:30   0.10   58.6    89    1.0   274     2.7   1012.0    0.00 
 297    8:40   0.10   58.5    89    0.9   277     3.1   1012.0    0.00 
 297    8:50   0.13   58.5    89    1.2   267     3.2   1011.9    0.00 
 297    9:00   0.15   58.7    89    0.8   220     2.9   1011.9    0.00 
 297    9:10   0.15   59.0    88    1.0   194     3.1   1012.0    0.00 
 297    9:20   0.17   59.4    86    0.7   220     3.0   1012.1    0.00 
 297    9:30   0.19   59.6    85    1.1   252     3.4   1012.1    0.00 
 297    9:40   0.15   59.4    84    0.8   223     2.9   1012.1    0.00 
 297    9:50   0.21   59.7    84    0.8   200     2.6   1012.1    0.00 
 297   10:00   0.21   59.9    83    1.1   236     3.6   1012.1    0.00 
 297   10:10   0.24   59.9    83    1.6   232     3.7   1012.1    0.00 
 297   10:20   0.33   60.1    83    1.5   266     3.3   1012.0    0.00 
 297   10:30   0.52   61.2    80    2.8   246     5.3   1012.0    0.00 
 297   10:40   0.56   62.0    79    1.9   239     4.3   1012.2    0.00 
 297   10:50   0.45   62.9    76    1.6   236     3.3   1012.4    0.00 
 297   11:00   0.55   63.6    75    1.3   227     3.8   1012.4    0.00 
 297   11:10   0.62   64.3    75    1.6   229     3.9   1012.4    0.00 
 297   11:20   0.63   64.2    75    2.2   252     4.7   1012.5    0.00 
 297   11:30   0.64   63.1    77    2.5   264     5.6   1012.5    0.00 
 297   11:40   0.65   62.7    78    2.9   263     6.7   1012.3    0.00 
 297   11:50   0.65   64.2    75    1.4   263     4.3   1012.2    0.00 
 297   12:00   0.65   64.3    75    1.6   272     5.3   1012.1    0.00 
 297   12:10   0.65   65.4    73    1.2   271     4.6   1012.1    0.00 
 297   12:20   0.65   65.2    72    2.1   284     5.2   1012.0    0.00 
 297   12:30   0.65   64.5    74    2.5   277     5.7   1011.9    0.00 
 297   12:40   0.64   64.4    74    2.5   283     5.3   1011.8    0.00 
 297   12:50   0.64   64.1    75    3.1   277     5.9   1011.7    0.00 
 297   13:00   0.63   62.8    78    3.1   270     6.1   1011.6    0.00 
 297   13:10   0.62   62.6    79    2.9   256     5.3   1011.4    0.00 
 297   13:20   0.61   62.8    78    3.1   258     5.8   1011.3    0.00 
 297   13:30   0.59   63.2    77    2.7   242     5.7   1011.3    0.00 
 297   13:40   0.58   63.8    75    2.0   240     6.1   1011.3    0.00 
 297   13:50   0.56   63.4    75    3.4   244     5.3   1011.3    0.00 
 297   14:00   0.54   64.0    74    1.4   235     3.4   1011.3    0.00 
 297   14:10   0.52   66.0    69    1.1   225     2.9   1011.3    0.00 
 297   14:20   0.50   66.7    68    1.0   225     2.9   1011.3    0.00 
 297   14:30   0.48   66.7    68    1.0   218     2.7   1011.2    0.00 
 297   14:40   0.46   67.2    67    1.0   211     2.8   1011.2    0.00 
 297   14:50   0.43   67.0    67    1.3   213     2.6   1011.2    0.00 
 297   15:00   0.40   66.2    69    1.4   227     3.4   1011.3    0.00 
 297   15:10   0.38   66.2    69    1.0   227     2.6   1011.3    0.00 
 297   15:20   0.34   65.9    70    1.1   225     3.5   1011.2    0.00 
 297   15:30   0.26   65.2    71    1.2   185     3.2   1011.3    0.00 
 297   15:40   0.11   63.3    76    1.5   123     3.0   1011.4    0.00 
 297   15:50   0.08   62.8    78    0.8   105     2.6   1011.3    0.00 
 297   16:00   0.06   62.9    78    0.7   204     2.6   1011.0    0.00 
 297   16:10   0.05   62.5    80    0.6   142     2.7   1010.7    0.00 
 297   16:20   0.04   62.4    80    0.4   232     2.6   1010.6    0.00 
 297   16:30   0.02   62.2    81    0.3   247     2.3   1010.3    0.00 
 297   16:40   0.01   62.1    81    0.2   201     1.6   1010.2    0.00 
 297   16:50   0.02   61.9    81    0.2   204     1.8   1010.3    0.00 
 297   17:00   0.01   61.9    81    0.1   333     0.9   1010.3    0.00 
 297   17:10   0.01   61.7    82    0.5    73     1.5   1010.3    0.00 
 297   17:20   0.00   61.6    82    0.6   248     2.3   1010.3    0.00 
 297   17:30   0.00   61.5    82    0.3   296     2.5   1010.3    0.00 
 297   17:40   0.00   61.2    82    1.3     1     2.7   1010.3    0.00 
 297   17:50   0.00   60.7    83    1.7   344     4.9   1010.5    0.00 
 297   18:00   0.00   60.6    83    2.5    21     6.4   1010.6    0.00 
 297   18:10   0.00   60.7    82    3.4    14     6.6   1010.5    0.00 
 297   18:20   0.00   60.7    82    2.4   355     4.2   1010.6    0.00 
 297   18:30   0.00   60.3    83    2.8   349     5.8   1010.7    0.00 
 297   18:40   0.00   59.9    84    3.0     5     5.1   1010.7    0.00 
 297   18:50   0.00   59.8    84    3.6    19     6.3   1010.7    0.00 
 297   19:00   0.00   59.5    84    4.7     6     7.8   1010.7    0.00 
 297   19:10   0.00   59.1    84    4.5   353     6.7   1010.9    0.00 
 297   19:20   0.00   58.7    84    4.0     3     8.0   1011.0    0.00 
 297   19:30   0.00   58.2    85    3.4     5     6.7   1011.3    0.00 
 297   19:40   0.00   57.8    85    4.0   352     6.3   1011.4    0.00 
 297   19:50   0.00   58.1    83    3.9     4     7.6   1011.5    0.00 
 297   20:00   0.00   57.5    83    4.1   351     7.1   1011.6    0.00 
 297   20:10   0.00   57.0    84    4.6   351     7.5   1011.7    0.00 
 297   20:20   0.00   56.8    84    4.4   358     7.5   1011.7    0.00 
 297   20:30   0.00   56.5    84    4.1   350     6.9   1011.8    0.00 
 297   20:40   0.00   56.4    84    4.3     1     8.0   1011.9    0.00 
 297   20:50   0.00   56.2    84    4.2     3     6.9   1012.0    0.00 
 297   21:00   0.00   56.1    84    3.8    13     6.6   1012.0    0.00 
 297   21:10   0.00   55.9    84    4.0     6     8.0   1012.1    0.00 
 297   21:20   0.00   55.5    85    4.1   358     7.5   1012.1    0.00 
 297   21:30   0.00   55.6    85    4.7    12     8.3   1012.2    0.00 
 297   21:40   0.00   55.8    84    4.6     5     8.5   1012.1    0.00 
 297   21:50   0.00   55.9    83    5.4   353     8.6   1012.2    0.00 
 297   22:00   0.00   55.6    83    5.5   359     9.0   1012.2    0.00 
 297   22:10   0.00   55.6    83    5.1   358     9.0   1012.2    0.00 
 297   22:20   0.00   55.7    83    5.1     3     8.6   1012.3    0.00 
 297   22:30   0.00   55.8    82    5.5    20     9.3   1012.6    0.00 
 297   22:40   0.00   56.1    82    4.7     5     8.8   1012.7    0.00 
 297   22:50   0.00   56.7    80    5.1   349     8.8   1012.6    0.00 
 297   23:00   0.00   57.4    78    5.4     2    11.2   1012.6    0.00 
 297   23:10   0.00   58.1    76    3.7    14     9.1   1012.7    0.00 
 297   23:20   0.00   58.2    77    2.8    24     7.1   1012.8    0.00 
 297   23:30   0.00   58.1    78    3.0    29     7.7   1012.6    0.00 
 297   23:40   0.00   58.7    76    4.9    34    10.0   1012.4    0.00 
 297   23:50   0.00   58.0    78    4.1    15     6.6   1012.4    0.00 
 298    0:00   0.00   58.4    78    3.7    35     7.2   1012.3    0.00 
 298    0:10   0.00   58.2    78    3.3    22     6.9   1012.4    0.00 

Return to Big Creek Reserve Entrance graphs page.


Western Regional Climate Center,wrcc@dri.edu